sim
Sign-in with your pilot id or email,
or register
Callsign
Passwort

Schedule Details

Flight Number: OEO7117
Departure: London Heathrow Airport (EGLL) at 10:50
Arrival: Delhi Indira Gandhi International Airport (VIDP) at 19:00

Weather Information
Getting current METAR information for EGLL 271650Z AUTO 25014KT 9999 NCD 12/09 Q0994 NOSIG
Getting current METAR information for VIDP 271700Z 00000KT 2500 FU NSC 21/15 Q1013 NOSIG

Schedule Frequency

Route Map